sensor_id;sensor_type;location;lat;lon;timestamp;pressure;altitude;pressure_sealevel;temperature;humidity
13765;BME280;6953;48.810;9.204;2023-06-24T00:00:56;99365.31;;;17.00;86.53
13765;BME280;6953;48.810;9.204;2023-06-24T00:03:21;99582.28;;;18.24;87.51
13765;BME280;6953;48.810;9.204;2023-06-24T00:05:46;99595.00;;;18.19;87.55
13765;BME280;6953;48.810;9.204;2023-06-24T00:08:18;99592.75;;;18.00;87.50
13765;BME280;6953;48.810;9.204;2023-06-24T00:10:48;99584.34;;;18.06;87.52
13765;BME280;6953;48.810;9.204;2023-06-24T00:13:17;99590.31;;;18.10;87.95
13765;BME280;6953;48.810;9.204;2023-06-24T00:15:43;99571.28;;;17.91;88.85
13765;BME280;6953;48.810;9.204;2023-06-24T00:18:11;99571.44;;;17.75;89.40
13765;BME280;6953;48.810;9.204;2023-06-24T00:20:37;99344.22;;;16.47;88.98
13765;BME280;6953;48.810;9.204;2023-06-24T00:23:02;99340.06;;;16.43;89.56
13765;BME280;6953;48.810;9.204;2023-06-24T00:25:28;99533.31;;;17.52;90.02
13765;BME280;6953;48.810;9.204;2023-06-24T00:27:54;99608.22;;;17.81;90.25
13765;BME280;6953;48.810;9.204;2023-06-24T00:30:19;99603.22;;;17.77;90.57
13765;BME280;6953;48.810;9.204;2023-06-24T00:32:44;99594.72;;;17.72;90.74
13765;BME280;6953;48.810;9.204;2023-06-24T00:35:10;99605.72;;;17.66;91.25
13765;BME280;6953;48.810;9.204;2023-06-24T00:37:37;99408.75;;;16.46;91.64
13765;BME280;6953;48.810;9.204;2023-06-24T00:40:02;99606.38;;;17.57;91.94
13765;BME280;6953;48.810;9.204;2023-06-24T00:42:28;99600.31;;;17.55;92.72
13765;BME280;6953;48.810;9.204;2023-06-24T00:44:54;99604.09;;;17.51;93.15
13765;BME280;6953;48.810;9.204;2023-06-24T00:47:19;99591.97;;;17.47;93.31
13765;BME280;6953;48.810;9.204;2023-06-24T00:49:45;99601.75;;;17.47;93.19
13765;BME280;6953;48.810;9.204;2023-06-24T00:52:11;99592.31;;;17.43;93.69
13765;BME280;6953;48.810;9.204;2023-06-24T00:54:41;99351.28;;;15.94;94.22
13765;BME280;6953;48.810;9.204;2023-06-24T00:57:06;99586.88;;;17.32;94.98
13765;BME280;6953;48.810;9.204;2023-06-24T00:59:32;99599.69;;;17.38;94.85
13765;BME280;6953;48.810;9.204;2023-06-24T01:01:57;99598.88;;;17.37;94.91
13765;BME280;6953;48.810;9.204;2023-06-24T01:04:26;99608.72;;;17.35;95.56
13765;BME280;6953;48.810;9.204;2023-06-24T01:06:52;99363.63;;;15.93;95.50
13765;BME280;6953;48.810;9.204;2023-06-24T01:09:17;99600.13;;;17.32;95.94
13765;BME280;6953;48.810;9.204;2023-06-24T01:11:43;99591.38;;;17.30;96.20
13765;BME280;6953;48.810;9.204;2023-06-24T01:14:08;99366.84;;;15.98;96.25
13765;BME280;6953;48.810;9.204;2023-06-24T01:19:51;99606.91;;;17.36;95.94
13765;BME280;6953;48.810;9.204;2023-06-24T01:23:03;99388.06;;;16.25;95.75
13765;BME280;6953;48.810;9.204;2023-06-24T01:25:21;99584.78;;;17.49;95.15
13765;BME280;6953;48.810;9.204;2023-06-24T01:28:23;99407.13;;;16.44;94.71
13765;BME280;6953;48.810;9.204;2023-06-24T01:33:58;99590.09;;;17.49;94.73
13765;BME280;6953;48.810;9.204;2023-06-24T01:36:27;99568.22;;;17.46;94.70
13765;BME280;6953;48.810;9.204;2023-06-24T01:39:07;99539.34;;;17.27;94.38
13765;BME280;6953;48.810;9.204;2023-06-24T01:41:41;99320.78;;;16.01;94.52
13765;BME280;6953;48.810;9.204;2023-06-24T01:44:13;99576.94;;;17.48;95.43
13765;BME280;6953;48.810;9.204;2023-06-24T01:46:41;99610.03;;;17.42;95.54
13765;BME280;6953;48.810;9.204;2023-06-24T01:49:09;99605.88;;;17.38;95.82
13765;BME280;6953;48.810;9.204;2023-06-24T01:51:37;99557.09;;;17.27;95.85
13765;BME280;6953;48.810;9.204;2023-06-24T01:54:06;99579.03;;;17.43;95.60
13765;BME280;6953;48.810;9.204;2023-06-24T01:56:33;99402.78;;;16.43;95.33
13765;BME280;6953;48.810;9.204;2023-06-24T01:59:01;99385.88;;;16.31;95.47
13765;BME280;6953;48.810;9.204;2023-06-24T02:01:29;99568.53;;;17.27;96.10
13765;BME280;6953;48.810;9.204;2023-06-24T02:03:57;99526.97;;;17.01;95.49
13765;BME280;6953;48.810;9.204;2023-06-24T02:06:24;99587.81;;;17.31;95.65
13765;BME280;6953;48.810;9.204;2023-06-24T02:08:52;99488.31;;;16.85;95.49
13765;BME280;6953;48.810;9.204;2023-06-24T02:11:21;99550.16;;;17.24;95.39
13765;BME280;6953;48.810;9.204;2023-06-24T02:13:48;99576.56;;;17.40;95.09
13765;BME280;6953;48.810;9.204;2023-06-24T02:16:14;99473.53;;;16.81;94.70
13765;BME280;6953;48.810;9.204;2023-06-24T02:18:42;99507.16;;;17.07;94.64
13765;BME280;6953;48.810;9.204;2023-06-24T02:21:08;99369.81;;;16.20;94.48
13765;BME280;6953;48.810;9.204;2023-06-24T02:23:36;99609.81;;;17.45;94.28
13765;BME280;6953;48.810;9.204;2023-06-24T02:26:03;99568.63;;;17.40;94.80
13765;BME280;6953;48.810;9.204;2023-06-24T02:28:31;99563.00;;;17.32;95.48
13765;BME280;6953;48.810;9.204;2023-06-24T02:30:58;99561.97;;;17.20;96.30
13765;BME280;6953;48.810;9.204;2023-06-24T02:33:24;99600.44;;;17.13;96.89
13765;BME280;6953;48.810;9.204;2023-06-24T02:35:51;99307.47;;;15.62;97.15
13765;BME280;6953;48.810;9.204;2023-06-24T02:38:16;99568.91;;;17.09;97.27
13765;BME280;6953;48.810;9.204;2023-06-24T02:40:43;99563.88;;;17.04;97.44
13765;BME280;6953;48.810;9.204;2023-06-24T02:43:10;99556.09;;;16.89;97.96
13765;BME280;6953;48.810;9.204;2023-06-24T02:45:35;99559.50;;;16.91;98.29
13765;BME280;6953;48.810;9.204;2023-06-24T02:48:01;99570.94;;;16.91;98.83
13765;BME280;6953;48.810;9.204;2023-06-24T02:50:31;99553.94;;;16.81;99.19
13765;BME280;6953;48.810;9.204;2023-06-24T02:52:56;99580.38;;;16.69;99.46
13765;BME280;6953;48.810;9.204;2023-06-24T02:55:22;99314.09;;;15.13;99.97
13765;BME280;6953;48.810;9.204;2023-06-24T02:57:48;99554.47;;;16.46;100.00
13765;BME280;6953;48.810;9.204;2023-06-24T03:00:16;99548.78;;;16.38;100.00
13765;BME280;6953;48.810;9.204;2023-06-24T03:02:43;99618.59;;;16.51;100.00
13765;BME280;6953;48.810;9.204;2023-06-24T03:05:10;99602.69;;;16.51;100.00
13765;BME280;6953;48.810;9.204;2023-06-24T03:07:37;99546.13;;;16.24;100.00
13765;BME280;6953;48.810;9.204;2023-06-24T03:10:03;99559.66;;;16.34;100.00
13765;BME280;6953;48.810;9.204;2023-06-24T03:12:30;99313.28;;;14.83;100.00
13765;BME280;6953;48.810;9.204;2023-06-24T03:14:55;99573.00;;;16.32;100.00
13765;BME280;6953;48.810;9.204;2023-06-24T03:17:20;99578.34;;;16.31;100.00
13765;BME280;6953;48.810;9.204;2023-06-24T03:19:46;99571.47;;;16.28;100.00
13765;BME280;6953;48.810;9.204;2023-06-24T03:22:11;99583.94;;;16.26;100.00
13765;BME280;6953;48.810;9.204;2023-06-24T03:24:36;99427.75;;;15.13;100.00
13765;BME280;6953;48.810;9.204;2023-06-24T03:27:02;99512.91;;;15.77;100.00
13765;BME280;6953;48.810;9.204;2023-06-24T03:29:28;99549.31;;;16.01;100.00
13765;BME280;6953;48.810;9.204;2023-06-24T03:31:53;99594.81;;;16.22;100.00
13765;BME280;6953;48.810;9.204;2023-06-24T03:34:19;99523.22;;;15.81;100.00
13765;BME280;6953;48.810;9.204;2023-06-24T03:36:44;99422.91;;;15.35;100.00
13765;BME280;6953;48.810;9.204;2023-06-24T03:39:10;99606.75;;;16.43;100.00
13765;BME280;6953;48.810;9.204;2023-06-24T03:41:35;99594.88;;;16.36;100.00
13765;BME280;6953;48.810;9.204;2023-06-24T03:44:01;99620.28;;;16.52;100.00
13765;BME280;6953;48.810;9.204;2023-06-24T03:46:26;99407.88;;;15.36;100.00
13765;BME280;6953;48.810;9.204;2023-06-24T03:48:52;99364.38;;;15.12;100.00
13765;BME280;6953;48.810;9.204;2023-06-24T03:51:17;99431.91;;;15.61;100.00
13765;BME280;6953;48.810;9.204;2023-06-24T03:53:42;99554.66;;;16.43;100.00
13765;BME280;6953;48.810;9.204;2023-06-24T03:56:08;99376.53;;;15.44;100.00
13765;BME280;6953;48.810;9.204;2023-06-24T03:58:33;99616.84;;;16.92;100.00
13765;BME280;6953;48.810;9.204;2023-06-24T04:00:59;99561.44;;;16.61;100.00
13765;BME280;6953;48.810;9.204;2023-06-24T04:03:25;99636.56;;;17.28;100.00
13765;BME280;6953;48.810;9.204;2023-06-24T04:05:57;99608.63;;;17.37;99.57
13765;BME280;6953;48.810;9.204;2023-06-24T04:08:23;99610.16;;;17.53;98.17
13765;BME280;6953;48.810;9.204;2023-06-24T04:10:50;99630.41;;;17.80;97.24
13765;BME280;6953;48.810;9.204;2023-06-24T04:13:16;99637.13;;;17.98;96.53
13765;BME280;6953;48.810;9.204;2023-06-24T04:15:41;99395.09;;;16.78;95.69
13765;BME280;6953;48.810;9.204;2023-06-24T04:18:07;99496.25;;;17.50;94.67
13765;BME280;6953;48.810;9.204;2023-06-24T04:20:33;99641.25;;;18.54;93.60
13765;BME280;6953;48.810;9.204;2023-06-24T04:22:59;99370.09;;;17.07;91.83
13765;BME280;6953;48.810;9.204;2023-06-24T04:25:25;99648.78;;;18.84;90.86
13765;BME280;6953;48.810;9.204;2023-06-24T04:27:50;99636.75;;;18.91;89.87
13765;BME280;6953;48.810;9.204;2023-06-24T04:30:16;99651.28;;;19.11;89.15
13765;BME280;6953;48.810;9.204;2023-06-24T04:32:41;99640.75;;;19.22;88.37
13765;BME280;6953;48.810;9.204;2023-06-24T04:35:07;99598.28;;;19.08;87.48
13765;BME280;6953;48.810;9.204;2023-06-24T04:37:32;99618.09;;;19.40;86.63
13765;BME280;6953;48.810;9.204;2023-06-24T04:39:57;99459.16;;;18.72;85.39
13765;BME280;6953;48.810;9.204;2023-06-24T04:42:23;99648.59;;;20.06;84.51
13765;BME280;6953;48.810;9.204;2023-06-24T04:44:49;99660.28;;;20.38;83.59
13765;BME280;6953;48.810;9.204;2023-06-24T04:47:17;99404.28;;;19.28;81.83
13765;BME280;6953;48.810;9.204;2023-06-24T04:49:43;99670.19;;;21.14;80.36
13765;BME280;6953;48.810;9.204;2023-06-24T04:52:10;99656.28;;;21.53;78.22
13765;BME280;6953;48.810;9.204;2023-06-24T04:54:36;99648.56;;;21.81;76.05
13765;BME280;6953;48.810;9.204;2023-06-24T04:57:02;99647.19;;;21.98;74.32
13765;BME280;6953;48.810;9.204;2023-06-24T04:59:30;99655.94;;;22.20;72.41
13765;BME280;6953;48.810;9.204;2023-06-24T05:01:55;99650.91;;;22.26;71.40
13765;BME280;6953;48.810;9.204;2023-06-24T05:04:20;99608.13;;;22.06;70.65
13765;BME280;6953;48.810;9.204;2023-06-24T05:06:45;99678.16;;;22.52;70.06
13765;BME280;6953;48.810;9.204;2023-06-24T05:09:11;99680.66;;;22.74;69.43
13765;BME280;6953;48.810;9.204;2023-06-24T05:11:39;99657.72;;;23.01;68.32
13765;BME280;6953;48.810;9.204;2023-06-24T05:14:05;99659.13;;;23.05;67.59
13765;BME280;6953;48.810;9.204;2023-06-24T05:16:30;99677.63;;;23.08;66.44
13765;BME280;6953;48.810;9.204;2023-06-24T05:18:55;99658.91;;;23.17;66.24
13765;BME280;6953;48.810;9.204;2023-06-24T05:21:21;99665.06;;;23.48;64.90
13765;BME280;6953;48.810;9.204;2023-06-24T05:23:46;99651.56;;;23.68;63.78
13765;BME280;6953;48.810;9.204;2023-06-24T05:26:11;99660.81;;;24.23;62.20
13765;BME280;6953;48.810;9.204;2023-06-24T05:28:36;99596.13;;;24.16;59.71
13765;BME280;6953;48.810;9.204;2023-06-24T05:31:02;99643.94;;;24.68;59.19
13765;BME280;6953;48.810;9.204;2023-06-24T05:33:27;99658.38;;;25.03;58.22
13765;BME280;6953;48.810;9.204;2023-06-24T05:35:52;99434.91;;;24.10;56.34
13765;BME280;6953;48.810;9.204;2023-06-24T05:38:18;99424.81;;;24.30;55.41
13765;BME280;6953;48.810;9.204;2023-06-24T05:40:43;99523.72;;;25.16;54.04
13765;BME280;6953;48.810;9.204;2023-06-24T05:43:10;99463.75;;;25.15;52.81
13765;BME280;6953;48.810;9.204;2023-06-24T05:45:36;99698.78;;;26.79;51.25
13765;BME280;6953;48.810;9.204;2023-06-24T05:48:03;99653.00;;;27.12;49.79
13765;BME280;6953;48.810;9.204;2023-06-24T05:50:28;99661.06;;;27.38;49.06
13765;BME280;6953;48.810;9.204;2023-06-24T05:52:53;99660.78;;;27.56;48.43
13765;BME280;6953;48.810;9.204;2023-06-24T05:55:19;99659.22;;;28.03;46.31
13765;BME280;6953;48.810;9.204;2023-06-24T05:57:44;99671.78;;;28.36;45.56
13765;BME280;6953;48.810;9.204;2023-06-24T06:00:10;99645.44;;;28.54;44.08
13765;BME280;6953;48.810;9.204;2023-06-24T06:02:35;99530.81;;;28.17;43.55
13765;BME280;6953;48.810;9.204;2023-06-24T06:05:00;99578.38;;;28.58;42.62
13765;BME280;6953;48.810;9.204;2023-06-24T06:07:26;99657.81;;;29.19;41.96
13765;BME280;6953;48.810;9.204;2023-06-24T06:09:52;99668.72;;;29.49;41.21
13765;BME280;6953;48.810;9.204;2023-06-24T06:12:17;99661.13;;;29.75;40.18
13765;BME280;6953;48.810;9.204;2023-06-24T06:14:42;99646.75;;;29.74;39.36
13765;BME280;6953;48.810;9.204;2023-06-24T06:17:08;99683.22;;;30.17;38.69
13765;BME280;6953;48.810;9.204;2023-06-24T06:19:33;99660.88;;;30.37;38.41
13765;BME280;6953;48.810;9.204;2023-06-24T06:21:58;99669.56;;;31.06;36.84
13765;BME280;6953;48.810;9.204;2023-06-24T06:24:23;99669.16;;;31.82;35.34
13765;BME280;6953;48.810;9.204;2023-06-24T06:26:49;99661.94;;;31.89;34.35
13765;BME280;6953;48.810;9.204;2023-06-24T06:29:14;99669.66;;;32.27;34.20
13765;BME280;6953;48.810;9.204;2023-06-24T06:31:40;99661.81;;;32.59;32.57
13765;BME280;6953;48.810;9.204;2023-06-24T06:34:05;99666.06;;;32.89;31.80
13765;BME280;6953;48.810;9.204;2023-06-24T06:36:31;99579.50;;;32.65;31.48
13765;BME280;6953;48.810;9.204;2023-06-24T06:38:56;99586.53;;;33.21;30.94
13765;BME280;6953;48.810;9.204;2023-06-24T06:41:21;99687.22;;;34.02;29.54
13765;BME280;6953;48.810;9.204;2023-06-24T06:43:50;99662.91;;;34.00;30.34
13765;BME280;6953;48.810;9.204;2023-06-24T06:46:16;99679.38;;;34.39;28.94
13765;BME280;6953;48.810;9.204;2023-06-24T06:48:41;99680.59;;;34.30;29.08
13765;BME280;6953;48.810;9.204;2023-06-24T06:51:06;99672.69;;;34.54;28.33
13765;BME280;6953;48.810;9.204;2023-06-24T06:53:31;99663.88;;;35.11;27.58
13765;BME280;6953;48.810;9.204;2023-06-24T06:55:57;99668.25;;;35.18;27.44
13765;BME280;6953;48.810;9.204;2023-06-24T06:58:23;99669.84;;;35.51;26.30
13765;BME280;6953;48.810;9.204;2023-06-24T07:00:49;99556.44;;;34.73;26.82
13765;BME280;6953;48.810;9.204;2023-06-24T07:03:14;99516.28;;;34.93;26.47
13765;BME280;6953;48.810;9.204;2023-06-24T07:05:39;99661.34;;;36.23;25.80
13765;BME280;6953;48.810;9.204;2023-06-24T07:08:05;99667.72;;;36.47;25.69
13765;BME280;6953;48.810;9.204;2023-06-24T07:10:30;99661.00;;;36.74;25.18
13765;BME280;6953;48.810;9.204;2023-06-24T07:12:55;99662.59;;;37.49;24.24
13765;BME280;6953;48.810;9.204;2023-06-24T07:15:26;99508.31;;;36.34;23.51
13765;BME280;6953;48.810;9.204;2023-06-24T07:17:52;99680.78;;;37.61;23.50
13765;BME280;6953;48.810;9.204;2023-06-24T07:20:18;99574.81;;;37.55;22.78
13765;BME280;6953;48.810;9.204;2023-06-24T07:22:43;99686.28;;;38.67;22.50
13765;BME280;6953;48.810;9.204;2023-06-24T07:25:09;99622.88;;;38.57;21.91
13765;BME280;6953;48.810;9.204;2023-06-24T07:27:34;99578.84;;;38.41;21.76
13765;BME280;6953;48.810;9.204;2023-06-24T07:30:00;99525.97;;;38.34;21.15
13765;BME280;6953;48.810;9.204;2023-06-24T07:32:25;99679.50;;;39.73;20.58
13765;BME280;6953;48.810;9.204;2023-06-24T07:34:50;99638.00;;;39.74;20.51
13765;BME280;6953;48.810;9.204;2023-06-24T07:37:16;99509.81;;;39.17;20.06
13765;BME280;6953;48.810;9.204;2023-06-24T07:39:41;99690.09;;;40.48;19.78
13765;BME280;6953;48.810;9.204;2023-06-24T07:42:07;99684.53;;;40.59;19.29
13765;BME280;6953;48.810;9.204;2023-06-24T07:44:32;99486.91;;;39.40;19.33
13765;BME280;6953;48.810;9.204;2023-06-24T07:46:57;99688.81;;;40.67;19.35
13765;BME280;6953;48.810;9.204;2023-06-24T07:49:23;99689.69;;;40.84;19.30
13765;BME280;6953;48.810;9.204;2023-06-24T07:51:48;99562.94;;;39.23;19.54
13765;BME280;6953;48.810;9.204;2023-06-24T07:54:15;99685.94;;;39.78;19.55
13765;BME280;6953;48.810;9.204;2023-06-24T07:56:40;99517.09;;;39.51;19.18
13765;BME280;6953;48.810;9.204;2023-06-24T07:59:05;99596.16;;;40.93;18.82
13765;BME280;6953;48.810;9.204;2023-06-24T08:01:31;99695.41;;;42.07;17.58
13765;BME280;6953;48.810;9.204;2023-06-24T08:03:56;99511.81;;;40.71;18.26
13765;BME280;6953;48.810;9.204;2023-06-24T08:06:21;99495.97;;;39.96;18.05
13765;BME280;6953;48.810;9.204;2023-06-24T08:08:47;99679.53;;;40.40;18.11
13765;BME280;6953;48.810;9.204;2023-06-24T08:11:12;99685.84;;;40.85;18.74
13765;BME280;6953;48.810;9.204;2023-06-24T08:13:38;99705.31;;;41.65;17.82
13765;BME280;6953;48.810;9.204;2023-06-24T08:16:04;99689.34;;;40.96;17.93
13765;BME280;6953;48.810;9.204;2023-06-24T08:18:29;99681.06;;;40.64;17.88
13765;BME280;6953;48.810;9.204;2023-06-24T08:20:55;99676.97;;;41.53;17.18
13765;BME280;6953;48.810;9.204;2023-06-24T08:23:20;99682.13;;;42.30;17.05
13765;BME280;6953;48.810;9.204;2023-06-24T08:25:45;99673.94;;;42.40;16.97
13765;BME280;6953;48.810;9.204;2023-06-24T08:28:11;99675.44;;;42.26;16.58
13765;BME280;6953;48.810;9.204;2023-06-24T08:30:36;99674.56;;;42.47;16.73
13765;BME280;6953;48.810;9.204;2023-06-24T08:33:01;99533.84;;;42.00;16.31
13765;BME280;6953;48.810;9.204;2023-06-24T08:35:27;99671.81;;;42.21;16.40
13765;BME280;6953;48.810;9.204;2023-06-24T08:37:52;99484.50;;;40.70;16.30
13765;BME280;6953;48.810;9.204;2023-06-24T08:40:17;99676.06;;;42.33;15.48
13765;BME280;6953;48.810;9.204;2023-06-24T08:42:43;99672.84;;;42.99;16.30
13765;BME280;6953;48.810;9.204;2023-06-24T08:45:09;99620.38;;;42.73;15.88
13765;BME280;6953;48.810;9.204;2023-06-24T08:47:35;99556.38;;;42.49;15.65
13765;BME280;6953;48.810;9.204;2023-06-24T08:50:21;99680.69;;;43.12;14.99
13765;BME280;6953;48.810;9.204;2023-06-24T08:52:52;99692.06;;;42.84;15.31
13765;BME280;6953;48.810;9.204;2023-06-24T08:55:22;99674.88;;;42.51;15.79
13765;BME280;6953;48.810;9.204;2023-06-24T08:57:47;99663.63;;;43.25;15.31
13765;BME280;6953;48.810;9.204;2023-06-24T09:00:13;99665.50;;;44.27;14.46
13765;BME280;6953;48.810;9.204;2023-06-24T09:02:39;99674.69;;;44.52;14.41
13765;BME280;6953;48.810;9.204;2023-06-24T09:05:06;99681.63;;;44.45;14.55
13765;BME280;6953;48.810;9.204;2023-06-24T09:07:31;99674.75;;;44.72;14.20
13765;BME280;6953;48.810;9.204;2023-06-24T09:09:57;99681.13;;;44.88;13.87
13765;BME280;6953;48.810;9.204;2023-06-24T09:12:24;99671.13;;;44.77;13.80
13765;BME280;6953;48.810;9.204;2023-06-24T09:14:50;99515.13;;;44.12;14.11
13765;BME280;6953;48.810;9.204;2023-06-24T09:17:16;99677.78;;;44.76;13.87
13765;BME280;6953;48.810;9.204;2023-06-24T09:19:41;99535.91;;;44.34;13.50
13765;BME280;6953;48.810;9.204;2023-06-24T09:22:08;99673.63;;;45.18;13.58
13765;BME280;6953;48.810;9.204;2023-06-24T09:24:35;99668.06;;;44.63;13.85
13765;BME280;6953;48.810;9.204;2023-06-24T09:27:01;99670.59;;;44.70;13.56
13765;BME280;6953;48.810;9.204;2023-06-24T09:29:34;99674.47;;;45.14;13.33
13765;BME280;6953;48.810;9.204;2023-06-24T09:32:03;99641.97;;;45.44;12.75
13765;BME280;6953;48.810;9.204;2023-06-24T09:34:29;99619.97;;;45.57;13.71
13765;BME280;6953;48.810;9.204;2023-06-24T09:36:56;99673.09;;;45.99;12.91
13765;BME280;6953;48.810;9.204;2023-06-24T09:39:22;99663.31;;;46.60;12.14
13765;BME280;6953;48.810;9.204;2023-06-24T09:41:54;99583.03;;;47.10;11.96
13765;BME280;6953;48.810;9.204;2023-06-24T09:44:19;99542.16;;;46.87;12.02
13765;BME280;6953;48.810;9.204;2023-06-24T09:46:45;99482.22;;;46.10;11.84
13765;BME280;6953;48.810;9.204;2023-06-24T09:49:11;99625.97;;;46.33;11.56
13765;BME280;6953;48.810;9.204;2023-06-24T09:51:38;99559.56;;;43.09;13.28
13765;BME280;6953;48.810;9.204;2023-06-24T09:54:07;99667.81;;;39.54;16.01
13765;BME280;6953;48.810;9.204;2023-06-24T09:56:36;99587.19;;;36.86;17.92
13765;BME280;6953;48.810;9.204;2023-06-24T09:59:06;99434.31;;;35.49;19.62
13765;BME280;6953;48.810;9.204;2023-06-24T10:01:33;99599.00;;;36.62;19.73
13765;BME280;6953;48.810;9.204;2023-06-24T10:04:00;99596.13;;;34.75;20.84
13765;BME280;6953;48.810;9.204;2023-06-24T10:06:27;99575.03;;;33.25;22.64
13765;BME280;6953;48.810;9.204;2023-06-24T10:08:53;99492.81;;;35.35;20.41
13765;BME280;6953;48.810;9.204;2023-06-24T10:11:19;99575.66;;;39.63;17.77
13765;BME280;6953;48.810;9.204;2023-06-24T10:13:44;99589.72;;;42.11;15.15
13765;BME280;6953;48.810;9.204;2023-06-24T10:16:10;99599.78;;;43.26;14.07
13765;BME280;6953;48.810;9.204;2023-06-24T10:18:39;99453.19;;;40.21;15.38
13765;BME280;6953;48.810;9.204;2023-06-24T10:21:07;99378.84;;;40.54;15.24
13765;BME280;6953;48.810;9.204;2023-06-24T10:26:27;99571.81;;;45.29;12.30
13765;BME280;6953;48.810;9.204;2023-06-24T10:34:24;99614.06;;;47.92;10.25
13765;BME280;6953;48.810;9.204;2023-06-24T10:39:50;99631.31;;;47.94;9.51
13765;BME280;6953;48.810;9.204;2023-06-24T10:42:41;99615.28;;;48.42;9.08
13765;BME280;6953;48.810;9.204;2023-06-24T10:47:53;99609.66;;;49.10;8.86
13765;BME280;6953;48.810;9.204;2023-06-24T10:50:22;99616.66;;;49.08;9.23
13765;BME280;6953;48.810;9.204;2023-06-24T10:52:50;99607.72;;;49.51;9.27
13765;BME280;6953;48.810;9.204;2023-06-24T10:55:20;99607.50;;;49.48;8.61
13765;BME280;6953;48.810;9.204;2023-06-24T10:57:46;99597.34;;;49.52;8.81
13765;BME280;6953;48.810;9.204;2023-06-24T11:00:13;99605.31;;;49.18;8.96
13765;BME280;6953;48.810;9.204;2023-06-24T11:02:39;99563.53;;;49.26;9.15
13765;BME280;6953;48.810;9.204;2023-06-24T11:05:05;99592.59;;;49.25;8.99
13765;BME280;6953;48.810;9.204;2023-06-24T11:07:32;99588.97;;;49.52;8.71
13765;BME280;6953;48.810;9.204;2023-06-24T11:10:04;99562.22;;;49.37;8.61
13765;BME280;6953;48.810;9.204;2023-06-24T11:12:32;99583.97;;;48.31;9.45
13765;BME280;6953;48.810;9.204;2023-06-24T11:15:03;99569.69;;;44.81;11.93
13765;BME280;6953;48.810;9.204;2023-06-24T11:17:29;99388.31;;;44.14;11.93
13765;BME280;6953;48.810;9.204;2023-06-24T11:19:56;99564.91;;;46.61;11.01
13765;BME280;6953;48.810;9.204;2023-06-24T11:22:22;99518.72;;;47.17;10.96
13765;BME280;6953;48.810;9.204;2023-06-24T11:24:48;99545.47;;;47.60;10.54
13765;BME280;6953;48.810;9.204;2023-06-24T11:27:13;99506.44;;;46.94;11.00
13765;BME280;6953;48.810;9.204;2023-06-24T11:29:39;99549.69;;;47.34;10.66
13765;BME280;6953;48.810;9.204;2023-06-24T11:32:07;99533.19;;;48.66;10.12
13765;BME280;6953;48.810;9.204;2023-06-24T11:34:33;99386.28;;;48.35;10.06
13765;BME280;6953;48.810;9.204;2023-06-24T11:36:58;99387.16;;;47.35;9.62
13765;BME280;6953;48.810;9.204;2023-06-24T11:39:34;99538.50;;;45.29;12.07
13765;BME280;6953;48.810;9.204;2023-06-24T11:41:59;99406.53;;;42.27;13.56
13765;BME280;6953;48.810;9.204;2023-06-24T11:44:24;99505.41;;;44.64;12.57
13765;BME280;6953;48.810;9.204;2023-06-24T11:46:50;99465.28;;;46.16;11.76
13765;BME280;6953;48.810;9.204;2023-06-24T11:49:15;99501.94;;;46.75;10.74
13765;BME280;6953;48.810;9.204;2023-06-24T11:51:50;99472.66;;;47.06;10.63
13765;BME280;6953;48.810;9.204;2023-06-24T11:54:19;99511.13;;;48.51;10.07
13765;BME280;6953;48.810;9.204;2023-06-24T11:56:50;99531.94;;;49.31;9.61
13765;BME280;6953;48.810;9.204;2023-06-24T11:59:21;99516.19;;;49.97;9.44
13765;BME280;6953;48.810;9.204;2023-06-24T12:01:57;99531.81;;;49.98;8.85
13765;BME280;6953;48.810;9.204;2023-06-24T12:04:30;99512.56;;;49.97;8.46
13765;BME280;6953;48.810;9.204;2023-06-24T12:06:56;99365.88;;;48.93;8.67
13765;BME280;6953;48.810;9.204;2023-06-24T12:09:22;99535.41;;;49.50;8.76
13765;BME280;6953;48.810;9.204;2023-06-24T12:11:47;99322.75;;;47.73;8.88
13765;BME280;6953;48.810;9.204;2023-06-24T12:14:12;99532.13;;;48.94;8.70
13765;BME280;6953;48.810;9.204;2023-06-24T12:16:38;99491.88;;;48.82;9.06
13765;BME280;6953;48.810;9.204;2023-06-24T12:19:04;99349.84;;;48.45;8.51
13765;BME280;6953;48.810;9.204;2023-06-24T12:21:29;99499.56;;;50.14;9.11
13765;BME280;6953;48.810;9.204;2023-06-24T12:23:54;99487.44;;;49.97;8.42
13765;BME280;6953;48.810;9.204;2023-06-24T12:26:20;99503.22;;;50.23;8.29
13765;BME280;6953;48.810;9.204;2023-06-24T12:28:45;99502.53;;;50.17;7.90
13765;BME280;6953;48.810;9.204;2023-06-24T12:31:11;99467.09;;;49.83;8.62
13765;BME280;6953;48.810;9.204;2023-06-24T12:33:36;99488.13;;;50.02;8.85
13765;BME280;6953;48.810;9.204;2023-06-24T12:36:01;99476.94;;;50.02;8.23
13765;BME280;6953;48.810;9.204;2023-06-24T12:38:27;99466.16;;;50.31;8.45
13765;BME280;6953;48.810;9.204;2023-06-24T12:40:52;99420.69;;;50.25;8.42
13765;BME280;6953;48.810;9.204;2023-06-24T12:43:17;99469.44;;;49.89;8.57
13765;BME280;6953;48.810;9.204;2023-06-24T12:45:43;99446.69;;;49.82;8.55
13765;BME280;6953;48.810;9.204;2023-06-24T12:48:09;99413.16;;;49.82;9.16
13765;BME280;6953;48.810;9.204;2023-06-24T12:50:35;99417.28;;;49.85;8.87
13765;BME280;6953;48.810;9.204;2023-06-24T12:53:01;99452.63;;;49.05;8.99
13765;BME280;6953;48.810;9.204;2023-06-24T12:55:27;99442.88;;;48.35;9.45
13765;BME280;6953;48.810;9.204;2023-06-24T12:57:52;99437.69;;;48.42;9.20
13765;BME280;6953;48.810;9.204;2023-06-24T13:00:19;99435.66;;;48.48;9.25
13765;BME280;6953;48.810;9.204;2023-06-24T13:02:45;99447.19;;;48.28;9.28
13765;BME280;6953;48.810;9.204;2023-06-24T13:05:10;99432.25;;;48.91;9.58
13765;BME280;6953;48.810;9.204;2023-06-24T13:07:35;99411.94;;;48.91;9.54
13765;BME280;6953;48.810;9.204;2023-06-24T13:10:01;99428.06;;;49.56;9.02
13765;BME280;6953;48.810;9.204;2023-06-24T13:12:27;99429.59;;;48.73;9.75
13765;BME280;6953;48.810;9.204;2023-06-24T13:14:52;99424.34;;;48.98;9.24
13765;BME280;6953;48.810;9.204;2023-06-24T13:17:17;99412.81;;;49.26;9.40
13765;BME280;6953;48.810;9.204;2023-06-24T13:19:43;99397.56;;;49.10;9.05
13765;BME280;6953;48.810;9.204;2023-06-24T13:22:08;99413.38;;;48.75;9.32
13765;BME280;6953;48.810;9.204;2023-06-24T13:24:33;99421.59;;;48.53;9.36
13765;BME280;6953;48.810;9.204;2023-06-24T13:26:58;99256.38;;;47.80;9.28
13765;BME280;6953;48.810;9.204;2023-06-24T13:29:24;99326.19;;;48.83;8.76